モスクワ/シェレメーチエヴォ の空港の天気 - METARとTAF

シェレメーチエヴォ国際空港(モスクワ) ( UUEE / SVO ) - ロシア モスクワ
飛行場実況気象(Metar)
観測時間11/24 20:30 MSK (11/24 17:30 UTC)
風向・風速西 3m/s
視程10km以上
天気現象弱い雨 しゅう雪 雪
全天の4割程度の雲 雲底高度 210m
気温1℃
湿度93%
気圧1008hPa
METARUUEE 241730Z 28003MPS 9999 -RA SCT007 01/00 Q1008 RESHRA RESHSN RESN R24L/290051 R24R/290051 NOSIG
過去の天気等 Google飛行場航空写真 Wunderground天気予報

過去48時間のMETAR

飛行場予報(TAF)
発表時間: 11/24 19:59 MSK (11/24 16:59 UTC)
予報対象時間: 24日21時 MSK ~ 25日21時 MSK
風向・風速西北西 3m/s 瞬間風速 8m/s
視程9000m
全天を覆う雲 雲底高度 210m
24日21時 MSK ~ 25日3時 MSK に一時的に
視程2100m
天気現象弱いしゅう雪雨 もや
全天の4割程度の雲 雲底高度 120m
全天の8割程度の積乱雲 雲底高度 340m
TAF UUEE 241659Z 2418/2518 29003G08MPS 9000 OVC007 TX01/2418Z TNM01/2518Z
TEMPO 2418/2424 2100 -SHSNRA BR SCT004 BKN011CB